地図

経路データ

SID SEASON NUMBER BASIN SUBBASIN NAME ISO_TIME NATURE LAT LON WMO_WIND WMO_PRES WMO_AGENCY TRACK_TYPE DIST2LAND LANDFALL IFLAG USA_AGENCY USA_ATCF_ID USA_LAT USA_LON USA_RECORD USA_STATUS USA_WIND USA_PRES USA_SSHS USA_R34_NE USA_R34_SE USA_R34_SW USA_R34_NW USA_R50_NE USA_R50_SE USA_R50_SW USA_R50_NW USA_R64_NE USA_R64_SE USA_R64_SW USA_R64_NW USA_POCI USA_ROCI USA_RMW USA_EYE TOKYO_LAT TOKYO_LON TOKYO_GRADE TOKYO_WIND TOKYO_PRES TOKYO_R50_DIR TOKYO_R50_LONG TOKYO_R50_SHORT TOKYO_R30_DIR TOKYO_R30_LONG TOKYO_R30_SHORT TOKYO_LAND CMA_LAT CMA_LON CMA_CAT CMA_WIND CMA_PRES HKO_LAT HKO_LON HKO_CAT HKO_WIND HKO_PRES NEWDELHI_LAT NEWDELHI_LON NEWDELHI_GRADE NEWDELHI_WIND NEWDELHI_PRES NEWDELHI_CI NEWDELHI_DP NEWDELHI_POCI REUNION_LAT REUNION_LON REUNION_TYPE REUNION_WIND REUNION_PRES REUNION_TNUM REUNION_CI REUNION_RMW REUNION_R34_NE REUNION_R34_SE REUNION_R34_SW REUNION_R34_NW REUNION_R50_NE REUNION_R50_SE REUNION_R50_SW REUNION_R50_NW REUNION_R64_NE REUNION_R64_SE REUNION_R64_SW REUNION_R64_NW BOM_LAT BOM_LON BOM_TYPE BOM_WIND BOM_PRES BOM_TNUM BOM_CI BOM_RMW BOM_R34_NE BOM_R34_SE BOM_R34_SW BOM_R34_NW BOM_R50_NE BOM_R50_SE BOM_R50_SW BOM_R50_NW BOM_R64_NE BOM_R64_SE BOM_R64_SW BOM_R64_NW BOM_ROCI BOM_POCI BOM_EYE BOM_POS_METHOD BOM_PRES_METHOD NADI_LAT NADI_LON NADI_CAT NADI_WIND NADI_PRES WELLINGTON_LAT WELLINGTON_LON WELLINGTON_WIND WELLINGTON_PRES DS824_LAT DS824_LON DS824_STAGE DS824_WIND DS824_PRES TD9636_LAT TD9636_LON TD9636_STAGE TD9636_WIND TD9636_PRES TD9635_LAT TD9635_LON TD9635_WIND TD9635_PRES TD9635_ROCI NEUMANN_LAT NEUMANN_LON NEUMANN_CLASS NEUMANN_WIND NEUMANN_PRES MLC_LAT MLC_LON MLC_CLASS MLC_WIND MLC_PRES USA_GUST BOM_GUST BOM_GUST_PER REUNION_GUST REUNION_GUST_PER USA_SEAHGT USA_SEARAD_NE USA_SEARAD_SE USA_SEARAD_SW USA_SEARAD_NW STORM_SPEED STORM_DIR
1994271N25169 1994 95 WP MM NOT_NAMED 1994-09-28 00:00:00 NR 25.1000 168.700 main 2843 2777 O_____________ jtwc_wp WP311994 25.1000 168.700 15 -1 18 286
1994271N25169 1994 95 WP MM NOT_NAMED 1994-09-28 03:00:00 NR 25.3513 167.743 main 2762 2702 P_____________ WP311994 25.3513 167.743 15 -1 18 286
1994271N25169 1994 95 WP MM NOT_NAMED 1994-09-28 06:00:00 NR 25.6000 166.800 main 2697 2618 O_____________ jtwc_wp WP311994 25.6000 166.800 15 -1 17 287
1994271N25169 1994 95 WP MM NOT_NAMED 1994-09-28 09:00:00 NR 25.8494 165.885 main 2618 2524 P_____________ WP311994 25.8494 165.885 17 -1 17 287
1994271N25169 1994 95 WP MM NOT_NAMED 1994-09-28 12:00:00 NR 26.1000 165.000 main 2524 2444 O_____________ jtwc_wp WP311994 26.1000 165.000 20 -1 17 287
1994271N25169 1994 95 WP MM NOT_NAMED 1994-09-28 15:00:00 NR 26.3421 164.127 main 2435 2356 P_____________ WP311994 26.3421 164.127 20 -1 16 285
1994271N25169 1994 95 WP MM NOT_NAMED 1994-09-28 18:00:00 NR 26.5200 163.240 main 2347 2270 O__O__________ jtwc_wp WP311994 26.6000 163.300 20 -1 26.2000 163.000 TD 30 1000 16 286
1994271N25169 1994 95 WP MM NOT_NAMED 1994-09-28 21:00:00 NR 26.7692 162.455 main 2270 2194 P__P__________ WP311994 26.8922 162.512 20 -1 26.5231 162.340 TD 30 1000 14 293
1994271N25169 1994 95 WP MM NOT_NAMED 1994-09-29 00:00:00 NR 27.0714 161.757 main 2194 2126 O__O__________ jtwc_wp WP311994 27.2000 161.800 20 -1 26.9000 161.700 TD 30 1000 14 299
1994271N25169 1994 95 WP MM NOT_NAMED 1994-09-29 03:00:00 NR 27.4324 161.123 main 2117 2052 P__P__________ WP311994 27.5073 161.140 22 -1 27.3574 161.105 TD 30 1000 13 305
1994271N25169 1994 95 WP MM NOT_NAMED 1994-09-29 06:00:00 NR 27.8000 160.600 main 2052 2001 O__O__________ jtwc_wp WP311994 27.8000 160.600 25 -1 27.8000 160.600 TD 30 1000 10 309
1994271N25169 1994 95 WP MM NOT_NAMED 1994-09-29 09:00:00 NR 28.0897 160.201 main 2001 1965 P__P__________ WP311994 28.0571 160.197 25 -1 28.1222 160.204 TD 30 1000 8 312
1994271N25169 1994 95 WP MM NOT_NAMED 1994-09-29 12:00:00 NR 28.3500 159.900 main 1959 1923 O__O__________ jtwc_wp WP311994 28.3000 159.900 25 -1 28.4000 159.900 TD 30 1000 7 317
1994271N25169 1994 95 WP MM NOT_NAMED 1994-09-29 15:00:00 NR 28.6324 159.620 main 1923 1890 P__P__________ WP311994 28.5574 159.620 25 -1 28.7074 159.620 TD 30 1000 7 321
1994271N25169 1994 95 WP MM NOT_NAMED 1994-09-29 18:00:00 NR 28.9000 159.400 main 1890 1862 O__O__________ jtwc_wp WP311994 28.8000 159.400 25 -1 29.0000 159.400 TD 30 1000 6 325
1994271N25169 1994 95 WP MM NOT_NAMED 1994-09-29 21:00:00 NR 29.1400 159.220 main 1862 1843 P__P__________ WP311994 29.0075 159.220 25 -1 29.2725 159.220 TD 30 1000 5 330
1994271N25169 1994 95 WP MM NOT_NAMED 1994-09-30 00:00:00 NR 29.3500 159.100 main 1838 1824 O__O__________ jtwc_wp WP311994 29.2000 159.100 25 -1 29.5000 159.100 TD 30 1000 4 338
1994271N25169 1994 95 WP MM NOT_NAMED 1994-09-30 03:00:00 NR 29.5325 159.039 main 1824 1814 P__P__________ WP311994 29.4000 159.035 27 -1 29.6650 159.042 TD 27 1002 4 346
1994271N25169 1994 95 WP MM NOT_NAMED 1994-09-30 06:00:00 NR 29.7000 159.000 main 1814 1796 O__O__________ jtwc_wp WP311994 29.6000 159.000 30 -1 29.8000 159.000 TD 25 1005 4 345
1994271N25169 1994 95 WP MM NOT_NAMED 1994-09-30 09:00:00 NR 29.8825 158.929 main 1796 1791 P__P__________ WP311994 29.8075 158.957 30 -1 29.9575 158.900 TD 25 1005 4 340
1994271N25169 1994 95 WP MM NOT_NAMED 1994-09-30 12:00:00 NR 30.0500 158.850 main 1786 1773 O__O__________ jtwc_wp WP311994 30.0000 158.900 30 -1 30.1000 158.800 TD 25 1005 3 338
1994271N25169 1994 95 WP MM NOT_NAMED 1994-09-30 15:00:00 NR 30.1825 158.782 main 1773 1759 P__P__________ WP311994 30.1575 158.815 30 -1 30.2075 158.750 TD 25 1005 3 332
1994271N25169 1994 95 WP MM NOT_NAMED 1994-09-30 18:00:00 NR 30.3000 158.700 main 1759 1746 O__O__________ jtwc_wp WP311994 30.3000 158.700 30 -1 30.3000 158.700 TD 25 1005 3 324
1994271N25169 1994 95 WP MM NOT_NAMED 1994-09-30 21:00:00 NR 30.4213 158.582 main 1746 1732 P__P__________ WP311994 30.4500 158.557 30 -1 30.3925 158.607 TD 25 1005 3 319
1994271N25169 1994 95 WP MM NOT_NAMED 1994-10-01 00:00:00 NR 30.5500 158.450 main 1728 1706 O__O__________ jtwc_wp WP311994 30.6000 158.400 30 -1 30.5000 158.500 TD 25 1005 4 322
1994271N25169 1994 95 WP MM NOT_NAMED 1994-10-01 03:00:00 NR 30.7000 158.332 main 1706 1693 P__P__________ WP311994 30.7575 158.257 30 -1 30.6425 158.407 TD 25 1005 4 324
1994271N25169 1994 95 WP MM NOT_NAMED 1994-10-01 06:00:00 NR 30.8500 158.200 main 1688 1675 O__O__________ jtwc_wp WP311994 30.9000 158.100 30 -1 30.8000 158.300 TD 25 1005 4 319
1994271N25169 1994 95 WP MM NOT_NAMED 1994-10-01 09:00:00 NR 30.9824 158.047 main 1666 1653 P__P__________ WP311994 31.0150 157.915 30 -1 30.9499 158.180 TD 25 1005 4 310
1994271N25169 1994 95 WP MM NOT_NAMED 1994-10-01 12:00:00 NR 31.1000 157.850 main 1653 1623 O__O__________ jtwc_wp WP311994 31.1000 157.700 30 -1 31.1000 158.000 TD 25 1005 4 301
1994271N25169 1994 95 WP MM NOT_NAMED 1994-10-01 15:00:00 NR 31.2074 157.605 main 1623 1592 P__P__________ WP311994 31.1575 157.457 30 -1 31.2573 157.752 TD 25 1005 5 293
1994271N25169 1994 95 WP MM NOT_NAMED 1994-10-01 18:00:00 NR 31.3000 157.300 main 1592 1553 O__O__________ jtwc_wp WP311994 31.2000 157.200 30 -1 31.4000 157.400 TD 25 1005 6 287
1994271N25169 1994 95 WP MM NOT_NAMED 1994-10-01 21:00:00 NR 31.3865 156.914 main 1553 1527 P__P__________ WP311994 31.2500 156.935 30 -1 31.5230 156.893 TD 25 1005 7 283
1994271N25169 1994 95 WP MM NOT_NAMED 1994-10-02 00:00:00 NR 31.4500 156.550 main 1522 1496 O__O__________ jtwc_wp WP311994 31.3000 156.700 30 -1 31.6000 156.400 TD 25 1005 5 281
1994271N25169 1994 95 WP MM NOT_NAMED 1994-10-02 03:00:00 NR 31.4861 156.320 main 1496 1487 P__P__________ WP311994 31.3499 156.535 30 -1 31.6222 156.105 TD 27 1002 3 278
1994271N25169 1994 95 WP MM NOT_NAMED 1994-10-02 06:00:00 NR 31.5000 156.150 main 1487 1461 O__O__________ jtwc_wp WP311994 31.4000 156.400 30 -1 31.6000 155.900 TD 30 1000 3 273
1994271N25169 1994 95 WP MM NOT_NAMED 1994-10-02 09:00:00 NR 31.5038 155.919 main 1461 1452 P__P__________ WP311994 31.4500 156.213 30 -1 31.5575 155.625 TD 30 1000 3 270
1994271N25169 1994 95 WP MM NOT_NAMED 1994-10-02 12:00:00 NR 31.5000 155.800 main 1452 1452 O__O__________ jtwc_wp WP311994 31.5000 156.100 30 -1 31.5000 155.500 TD 30 1000 0 0
1994271N25169 1994 95 WP MM NOT_NAMED 1994-10-02 15:00:00 NR 31.4924 155.904 main 1461 1461 P__P__________ WP311994 31.5499 156.140 30 -1 31.4350 155.668 TD 30 1000 3 90
1994271N25169 1994 95 WP MM NOT_NAMED 1994-10-02 18:00:00 NR 31.5000 156.150 main 1487 1479 O__O__________ jtwc_wp WP311994 31.6000 156.300 30 -1 31.4000 156.000 TD 30 1000 4 84
1994271N25169 1994 95 WP MM NOT_NAMED 1994-10-02 21:00:00 NR 31.5385 156.398 main 1505 1505 P__P__________ WP311994 31.6498 156.490 30 -1 31.4272 156.305 TD 30 1000 5 79
1994271N25169 1994 95 WP MM NOT_NAMED 1994-10-03 00:00:00 NR 31.6000 156.750 main 1536 1536 O__O__________ jtwc_wp WP311994 31.7000 156.800 30 -1 31.5000 156.700 TD 30 1000 7 80
1994271N25169 1994 95 WP MM NOT_NAMED 1994-10-03 03:00:00 NR 31.6635 157.215 main 1567 1567 P__P__________ WP311994 31.7423 157.233 30 -1 31.5848 157.198 TD 30 1000 9 80
1994271N25169 1994 95 WP MM NOT_NAMED 1994-10-03 06:00:00 NR 31.7571 157.800 main 1616 1616 O__O__________ jtwc_wp WP311994 31.8000 157.800 XX 30 -5 31.7000 157.800 TD 30 1000 11 79
1994271N25169 1994 95 WP MM NOT_NAMED 1994-10-03 09:00:00 NR 31.8762 158.473 main 1674 1674 P__P__________ WP311994 31.8926 158.470 27 -1 31.8434 158.479 TD 30 1000 12 78
1994271N25169 1994 95 WP MM NOT_NAMED 1994-10-03 12:00:00 NR 32.0000 159.200 main 1719 1719 O__O__________ jtwc_wp WP311994 32.0000 159.200 25 -1 32.0000 159.200 TD 30 1000 12 79
1994271N25169 1994 95 WP MM NOT_NAMED 1994-10-03 15:00:00 NR 32.0995 159.893 main 1738 1738 P_____________ WP311994 32.0995 159.893 25 -1 TD 12 80
1994271N25169 1994 95 WP MM NOT_NAMED 1994-10-03 18:00:00 NR 32.2000 160.600 main 1759 1759 O_____________ jtwc_wp WP311994 32.2000 160.600 25 -1 13 80
1994271N25169 1994 95 WP MM NOT_NAMED 1994-10-03 21:00:00 NR 32.3149 161.357 main 1787 1787 P_____________ WP311994 32.3149 161.357 25 -1 13 81
1994271N25169 1994 95 WP MM NOT_NAMED 1994-10-04 00:00:00 NR 32.4000 162.100 main 1812 1812 O_____________ jtwc_wp WP311994 32.4000 162.100 25 -1 12 85
1994271N25169 1994 95 WP MM NOT_NAMED 1994-10-04 03:00:00 NR 32.4297 162.788 main 1847 1847 P_____________ WP311994 32.4297 162.788 25 -1 11 90
1994271N25169 1994 95 WP MM NOT_NAMED 1994-10-04 06:00:00 NR 32.4000 163.400 main 1879 1879 O_____________ jtwc_wp WP311994 32.4000 163.400 25 -1 10 96
1994271N25169 1994 95 WP MM NOT_NAMED 1994-10-04 09:00:00 NR 32.3223 163.953 main 1920 1920 P_____________ WP311994 32.3223 163.953 22 -1 9 103
1994271N25169 1994 95 WP MM NOT_NAMED 1994-10-04 12:00:00 NR 32.2000 164.400 main 1951 1951 O_____________ jtwc_wp WP311994 32.2000 164.400 20 -1 7 110
1994271N25169 1994 95 WP MM NOT_NAMED 1994-10-04 15:00:00 NR 32.0649 164.783 main 1981 1981 P_____________ WP311994 32.0649 164.783 20 -1 6 121
1994271N25169 1994 95 WP MM NOT_NAMED 1994-10-04 18:00:00 NR 31.9000 165.000 main 2010 2010 O_____________ jtwc_wp WP311994 31.9000 165.000 20 -1 4 148
1994271N25169 1994 95 WP MM NOT_NAMED 1994-10-04 21:00:00 NR 31.7073 165.040 main 2029 2029 P_____________ WP311994 31.7073 165.040 20 -1 4 192
1994271N25169 1994 95 WP MM NOT_NAMED 1994-10-05 00:00:00 NR 31.5000 164.900 main 2042 2040 O_____________ jtwc_wp WP311994 31.5000 164.900 20 -1 5 218
1994271N25169 1994 95 WP MM NOT_NAMED 1994-10-05 03:00:00 NR 31.2998 164.668 main 2049 2043 P_____________ WP311994 31.2998 164.668 20 -1 7 232
1994271N25169 1994 95 WP MM NOT_NAMED 1994-10-05 06:00:00 NR 31.1000 164.300 main 2046 2040 O_____________ jtwc_wp WP311994 31.1000 164.300 20 -1 8 240
1994271N25169 1994 95 WP MM NOT_NAMED 1994-10-05 09:00:00 NR 30.8996 163.868 main 2044 2033 P_____________ WP311994 30.8996 163.868 17 -1 9 245
1994271N25169 1994 95 WP MM NOT_NAMED 1994-10-05 12:00:00 NR 30.7000 163.300 main 2033 2018 O_____________ jtwc_wp WP311994 30.7000 163.300 15 -1 12 249
1994271N25169 1994 95 WP MM NOT_NAMED 1994-10-05 15:00:00 NR 30.4850 162.595 main 2018 2000 P_____________ WP311994 30.4850 162.595 15 -1 14 253
1994271N25169 1994 95 WP MM NOT_NAMED 1994-10-05 18:00:00 NR 30.3000 161.800 main 2000 1974 O_____________ jtwc_wp WP311994 30.3000 161.800 15 -1 14 257
1994271N25169 1994 95 WP MM NOT_NAMED 1994-10-05 21:00:00 NR 30.1770 161.015 main 1965 1899 P_____________ WP311994 30.1770 161.015 15 -1 14 262
1994271N25169 1994 95 WP MM NOT_NAMED 1994-10-06 00:00:00 NR 30.1000 160.200 main 1899 1834 O_____________ jtwc_wp WP311994 30.1000 160.200 15 -1 14 265
1994271N25169 1994 95 WP MM NOT_NAMED 1994-10-06 03:00:00 NR 30.0461 159.357 main 1834 1756 P_____________ WP311994 30.0461 159.357 15 -1 15 266
1994271N25169 1994 95 WP MM NOT_NAMED 1994-10-06 06:00:00 NR 30.0000 158.500 main 1756 O_____________ jtwc_wp WP311994 30.0000 158.500 15 -1 15 266

デジタル台風データ・検索

IBTrACS Databaseについて

本データベースは、米国NOAAが公開する1842年以降の世界の熱帯低気圧のベストトラックデータアーカイブInternational Best Track Archive for Climate Stewardship (IBTrACS)を、ウェブで閲覧しやすい形式に変換したものです。

最終更新日:2021-12-03